Time;durP1;ratioP1;P1;durP2;ratioP2;P2;SDS_P1;SDS_P2;PMS_P1;PMS_P2;Temp;Humidity;BMP_temperature;BMP_pressure;BME280_temperature;BME280_humidity;BME280_pressure;Samples;Min_cycle;Max_cycle;Signal;HPM_P1;HPM_P2
2022/10/07 00:00:01;;;;;;;16.13;3.28;;;;;;;;;;4934033;29;20035;-66
2022/10/07 00:02:28;;;;;;;26.75;3.95;;;;;;;;;;4935036;29;20050;-67
2022/10/07 00:04:56;;;;;;;28.20;3.78;;;;;;;;;;4935428;29;20111;-67
2022/10/07 00:07:23;;;;;;;22.23;3.50;;;;;;;;;;4936364;29;20043;-66
2022/10/07 00:09:50;;;;;;;19.15;3.60;;;;;;;;;;4938014;28;20039;-68
2022/10/07 00:12:17;;;;;;;19.25;3.03;;;;;;;;;;4941736;28;20103;-66
2022/10/07 00:14:45;;;;;;;22.55;4.10;;;;;;;;;;4933135;29;20035;-66
2022/10/07 00:17:12;;;;;;;36.60;4.13;;;;;;;;;;4936810;29;20079;-68
2022/10/07 00:19:40;;;;;;;30.63;3.63;;;;;;;;;;4939312;29;20115;-66
2022/10/07 00:22:07;;;;;;;25.60;3.30;;;;;;;;;;4949872;29;20079;-67
2022/10/07 00:24:34;;;;;;;25.00;3.72;;;;;;;;;;4934506;28;20398;-68
2022/10/07 00:27:01;;;;;;;29.58;4.03;;;;;;;;;;4932951;29;20228;-66
2022/10/07 00:29:28;;;;;;;22.80;4.30;;;;;;;;;;4934987;29;20059;-67
2022/10/07 00:31:55;;;;;;;20.70;3.92;;;;;;;;;;4935152;29;20075;-67
2022/10/07 00:34:22;;;;;;;32.22;4.40;;;;;;;;;;4933763;29;20082;-68
2022/10/07 00:36:49;;;;;;;23.88;3.95;;;;;;;;;;4933547;29;20040;-69
2022/10/07 00:39:17;;;;;;;20.05;4.07;;;;;;;;;;4940347;29;20494;-69
2022/10/07 00:41:49;;;;;;;22.90;3.88;;;;;;;;;;4953389;28;20039;-66
2022/10/07 00:44:28;;;;;;;22.27;4.10;;;;;;;;;;4954463;28;20074;-66
2022/10/07 00:46:55;;;;;;;21.92;4.63;;;;;;;;;;4953804;28;20489;-68
2022/10/07 00:49:22;;;;;;;33.33;4.38;;;;;;;;;;4939733;28;20032;-66
2022/10/07 00:51:50;;;;;;;33.28;4.50;;;;;;;;;;4934797;29;20028;-66
2022/10/07 00:54:20;;;;;;;29.80;4.40;;;;;;;;;;4934132;29;20066;-66
2022/10/07 00:56:49;;;;;;;30.02;4.82;;;;;;;;;;4934157;29;20074;-69
2022/10/07 00:59:16;;;;;;;20.50;5.70;;;;;;;;;;4937080;29;20035;-66
2022/10/07 01:01:43;;;;;;;25.08;7.43;;;;;;;;;;4953763;28;20043;-66
2022/10/07 01:04:11;;;;;;;45.47;19.55;;;;;;;;;;4968612;28;20043;-66
2022/10/07 01:06:38;;;;;;;57.90;22.50;;;;;;;;;;4954198;28;20031;-66
2022/10/07 01:09:06;;;;;;;66.28;27.00;;;;;;;;;;4944941;28;20416;-67
2022/10/07 01:11:38;;;;;;;67.43;27.17;;;;;;;;;;4935113;29;20028;-66
2022/10/07 01:14:18;;;;;;;69.70;24.42;;;;;;;;;;4934470;29;20036;-66
2022/10/07 01:16:53;;;;;;;60.33;23.48;;;;;;;;;;4936545;29;20039;-68
2022/10/07 01:19:35;;;;;;;61.63;21.30;;;;;;;;;;4945511;28;20031;-67
2022/10/07 01:22:10;;;;;;;66.00;22.70;;;;;;;;;;4953477;28;20047;-68
2022/10/07 01:24:43;;;;;;;58.40;21.75;;;;;;;;;;4953075;28;20031;-67
2022/10/07 01:27:15;;;;;;;57.97;20.42;;;;;;;;;;4954100;28;20043;-68
2022/10/07 01:29:52;;;;;;;50.22;18.17;;;;;;;;;;4954043;28;20027;-69
2022/10/07 01:32:22;;;;;;;48.75;17.48;;;;;;;;;;4953331;28;20130;-69
2022/10/07 01:34:50;;;;;;;51.92;18.00;;;;;;;;;;4953246;29;20043;-66
2022/10/07 01:37:18;;;;;;;52.05;19.08;;;;;;;;;;4953794;28;20034;-69
2022/10/07 01:39:48;;;;;;;54.35;18.13;;;;;;;;;;4953232;28;20043;-68
2022/10/07 01:42:16;;;;;;;42.75;18.40;;;;;;;;;;4953964;28;20055;-69
2022/10/07 01:44:44;;;;;;;47.83;18.63;;;;;;;;;;4953816;28;20031;-68
2022/10/07 01:47:11;;;;;;;42.95;17.40;;;;;;;;;;4953577;28;20134;-65
2022/10/07 01:49:38;;;;;;;39.25;16.80;;;;;;;;;;4953887;28;20027;-65
2022/10/07 01:52:31;;;;;;;51.60;16.95;;;;;;;;;;4953781;28;20086;-67
2022/10/07 01:54:58;;;;;;;43.67;17.17;;;;;;;;;;4947824;28;20036;-66
2022/10/07 01:57:30;;;;;;;38.97;15.73;;;;;;;;;;4957116;28;20078;-66
2022/10/07 02:00:08;;;;;;;38.38;15.35;;;;;;;;;;4956792;28;20367;-65
2022/10/07 02:02:42;;;;;;;33.65;14.85;;;;;;;;;;4954446;29;20053;-69
2022/10/07 02:05:26;;;;;;;41.17;14.88;;;;;;;;;;4955886;29;20501;-65
2022/10/07 02:07:52;;;;;;;41.72;15.57;;;;;;;;;;4956336;29;20031;-68
2022/10/07 02:10:35;;;;;;;37.03;14.88;;;;;;;;;;4957081;28;20031;-68
2022/10/07 02:13:15;;;;;;;36.65;15.27;;;;;;;;;;4955426;28;20183;-68
2022/10/07 02:15:45;;;;;;;34.38;14.40;;;;;;;;;;4957214;28;20085;-66
2022/10/07 02:18:14;;;;;;;35.22;14.20;;;;;;;;;;4956479;28;20034;-67
2022/10/07 02:20:42;;;;;;;31.13;13.43;;;;;;;;;;4954788;28;20028;-67
2022/10/07 02:23:10;;;;;;;37.78;13.93;;;;;;;;;;4952338;28;20058;-67
2022/10/07 02:25:39;;;;;;;30.65;13.57;;;;;;;;;;4951313;29;20592;-67
2022/10/07 02:28:07;;;;;;;31.75;12.10;;;;;;;;;;4956099;28;20027;-67
2022/10/07 02:30:35;;;;;;;29.08;12.23;;;;;;;;;;4955116;28;20047;-67
2022/10/07 02:33:05;;;;;;;34.45;13.23;;;;;;;;;;4956229;28;20055;-67
2022/10/07 02:35:43;;;;;;;28.83;12.25;;;;;;;;;;4955499;28;20038;-67
2022/10/07 02:38:12;;;;;;;34.10;11.95;;;;;;;;;;4953241;29;20038;-68
2022/10/07 02:40:46;;;;;;;26.00;11.77;;;;;;;;;;4952876;29;20029;-67
2022/10/07 02:43:27;;;;;;;29.35;12.00;;;;;;;;;;4953853;29;20031;-67
2022/10/07 02:46:03;;;;;;;26.25;11.35;;;;;;;;;;4953713;29;20033;-67
2022/10/07 02:48:38;;;;;;;30.10;12.52;;;;;;;;;;4953291;29;20035;-67
2022/10/07 02:51:06;;;;;;;22.02;10.60;;;;;;;;;;4955219;28;20023;-68
2022/10/07 02:53:35;;;;;;;27.88;11.80;;;;;;;;;;4955322;28;20110;-68
2022/10/07 02:56:04;;;;;;;30.85;11.75;;;;;;;;;;4955252;28;20024;-67
2022/10/07 02:58:31;;;;;;;33.10;11.40;;;;;;;;;;4953722;28;20034;-67
2022/10/07 03:01:00;;;;;;;25.67;11.48;;;;;;;;;;4955056;28;20035;-68
2022/10/07 03:03:39;;;;;;;;;;;;;;;;;;;;;
2022/10/07 03:06:06;;;;;;;27.67;10.38;;;;;;;;;;4954905;29;20027;-67
2022/10/07 03:08:33;;;;;;;24.48;9.90;;;;;;;;;;4955098;28;20023;-68
2022/10/07 03:11:00;;;;;;;23.15;10.00;;;;;;;;;;4954894;28;20035;-68
2022/10/07 03:13:28;;;;;;;24.23;9.82;;;;;;;;;;4956274;28;20434;-68
2022/10/07 03:15:55;;;;;;;23.00;9.90;;;;;;;;;;4955200;28;20035;-68
2022/10/07 03:18:26;;;;;;;28.60;10.65;;;;;;;;;;4955863;28;20027;-68
2022/10/07 03:20:55;;;;;;;21.55;9.68;;;;;;;;;;4956228;28;20389;-68
2022/10/07 03:23:25;;;;;;;23.70;9.60;;;;;;;;;;4956236;28;20038;-68
2022/10/07 03:25:53;;;;;;;22.38;9.13;;;;;;;;;;4954861;28;20047;-68
2022/10/07 03:28:21;;;;;;;21.45;9.40;;;;;;;;;;4955433;28;20036;-68
2022/10/07 03:30:48;;;;;;;24.67;9.75;;;;;;;;;;4956019;28;20061;-68
2022/10/07 03:33:15;;;;;;;19.48;9.02;;;;;;;;;;4955904;28;20047;-68
2022/10/07 03:35:43;;;;;;;23.17;8.77;;;;;;;;;;4956050;28;20028;-68
2022/10/07 03:38:10;;;;;;;20.80;9.40;;;;;;;;;;4955608;28;20060;-68
2022/10/07 03:40:37;;;;;;;20.40;9.02;;;;;;;;;;4955837;28;20031;-68
2022/10/07 03:43:06;;;;;;;21.88;8.82;;;;;;;;;;4955918;28;20401;-68
2022/10/07 03:45:34;;;;;;;21.20;8.82;;;;;;;;;;4955865;28;20019;-68
2022/10/07 03:48:01;;;;;;;16.80;8.00;;;;;;;;;;4955466;28;20030;-68
2022/10/07 03:50:28;;;;;;;19.75;8.57;;;;;;;;;;4954414;28;20042;-68
2022/10/07 03:52:55;;;;;;;16.55;7.93;;;;;;;;;;4955745;28;20035;-68
2022/10/07 03:55:22;;;;;;;21.17;8.40;;;;;;;;;;4955516;28;20023;-68
2022/10/07 03:57:49;;;;;;;18.58;7.70;;;;;;;;;;4955505;28;20034;-68
2022/10/07 04:00:16;;;;;;;18.77;7.90;;;;;;;;;;4955464;28;20023;-68
2022/10/07 04:02:43;;;;;;;19.92;8.52;;;;;;;;;;4955395;28;20030;-68
2022/10/07 04:05:10;;;;;;;17.80;7.68;;;;;;;;;;4955282;28;20042;-68
2022/10/07 04:07:37;;;;;;;15.73;7.30;;;;;;;;;;4955356;28;20027;-68
2022/10/07 04:10:04;;;;;;;13.77;6.88;;;;;;;;;;4955362;28;20106;-68
2022/10/07 04:12:32;;;;;;;13.95;6.72;;;;;;;;;;4955264;28;20027;-68
2022/10/07 04:15:00;;;;;;;17.05;6.88;;;;;;;;;;4955138;28;20566;-68
2022/10/07 04:17:28;;;;;;;16.45;6.97;;;;;;;;;;4955200;28;20032;-68
2022/10/07 04:19:56;;;;;;;16.40;7.40;;;;;;;;;;4955013;28;20059;-68
2022/10/07 04:22:24;;;;;;;16.50;7.18;;;;;;;;;;4955024;28;20039;-68
2022/10/07 04:27:36;;;;;;;18.80;6.78;;;;;;;;;;4954991;29;20046;-68
2022/10/07 04:30:04;;;;;;;12.43;6.10;;;;;;;;;;4955030;28;20035;-68
2022/10/07 04:32:31;;;;;;;15.38;6.60;;;;;;;;;;4954630;28;20047;-68
2022/10/07 04:34:59;;;;;;;15.40;6.55;;;;;;;;;;4954959;28;20114;-68
2022/10/07 04:37:27;;;;;;;13.13;6.32;;;;;;;;;;4954894;28;20130;-68
2022/10/07 04:39:54;;;;;;;14.75;6.32;;;;;;;;;;4954809;28;20031;-68
2022/10/07 04:45:06;;;;;;;11.07;5.65;;;;;;;;;;4954533;29;20046;-65
2022/10/07 04:47:34;;;;;;;11.32;5.65;;;;;;;;;;4954669;28;20430;-65
2022/10/07 04:50:01;;;;;;;14.88;6.03;;;;;;;;;;4954628;28;20054;-65
2022/10/07 04:52:28;;;;;;;14.10;6.65;;;;;;;;;;4955001;28;20027;-65
2022/10/07 04:54:55;;;;;;;12.23;6.10;;;;;;;;;;4954583;28;20027;-65
2022/10/07 04:57:22;;;;;;;15.30;6.40;;;;;;;;;;4954569;28;20062;-65
2022/10/07 04:59:49;;;;;;;13.02;5.85;;;;;;;;;;4954672;28;20486;-65
2022/10/07 05:02:16;;;;;;;11.13;5.68;;;;;;;;;;4954506;28;20035;-65
2022/10/07 05:04:44;;;;;;;12.57;5.82;;;;;;;;;;4954459;28;20043;-65
2022/10/07 05:07:11;;;;;;;13.40;5.80;;;;;;;;;;4954292;28;20035;-65
2022/10/07 05:09:38;;;;;;;13.02;4.97;;;;;;;;;;4954637;28;20031;-65
2022/10/07 05:12:05;;;;;;;12.90;5.28;;;;;;;;;;4954516;28;20050;-65
2022/10/07 05:14:32;;;;;;;9.70;5.10;;;;;;;;;;4954432;28;20457;-65
2022/10/07 05:16:59;;;;;;;13.68;5.65;;;;;;;;;;4954429;28;20107;-65
2022/10/07 05:19:26;;;;;;;14.80;5.60;;;;;;;;;;4954573;28;20027;-65
2022/10/07 05:21:53;;;;;;;10.70;5.40;;;;;;;;;;4954386;28;20059;-65
2022/10/07 05:24:20;;;;;;;12.57;5.53;;;;;;;;;;4954482;28;20086;-65
2022/10/07 05:26:47;;;;;;;12.73;5.40;;;;;;;;;;4954566;28;20039;-65
2022/10/07 05:29:14;;;;;;;12.88;5.18;;;;;;;;;;4958281;28;20075;-65
2022/10/07 05:31:41;;;;;;;9.40;4.47;;;;;;;;;;4958129;28;20032;-65
2022/10/07 05:34:08;;;;;;;9.50;4.82;;;;;;;;;;4958258;28;20545;-65
2022/10/07 05:36:35;;;;;;;11.57;5.30;;;;;;;;;;4958071;28;20027;-65
2022/10/07 05:39:02;;;;;;;10.93;4.38;;;;;;;;;;4958205;28;20041;-65
2022/10/07 05:41:29;;;;;;;8.90;5.03;;;;;;;;;;4958016;28;20082;-65
2022/10/07 05:43:56;;;;;;;12.32;4.25;;;;;;;;;;4958078;28;20031;-65
2022/10/07 05:46:24;;;;;;;11.15;4.45;;;;;;;;;;4958047;28;20034;-65
2022/10/07 05:48:52;;;;;;;10.05;4.43;;;;;;;;;;4957892;28;20035;-65
2022/10/07 05:51:22;;;;;;;8.25;4.15;;;;;;;;;;4957871;28;20462;-65
2022/10/07 05:53:49;;;;;;;8.57;4.40;;;;;;;;;;4957878;28;20035;-65
2022/10/07 05:56:21;;;;;;;8.20;4.53;;;;;;;;;;4957887;28;20038;-65
2022/10/07 05:58:48;;;;;;;10.02;4.65;;;;;;;;;;4957758;28;20143;-65
2022/10/07 06:01:19;;;;;;;11.38;4.60;;;;;;;;;;4957720;28;20066;-64
2022/10/07 06:03:51;;;;;;;8.88;4.15;;;;;;;;;;4976853;28;20058;-64
2022/10/07 06:06:18;;;;;;;10.18;4.43;;;;;;;;;;4976992;28;20031;-64
2022/10/07 06:08:46;;;;;;;9.35;4.57;;;;;;;;;;4976821;28;20038;-64
2022/10/07 06:13:59;;;;;;;11.02;4.47;;;;;;;;;;4977111;28;20053;-64
2022/10/07 06:16:26;;;;;;;8.60;3.75;;;;;;;;;;4976734;28;20490;-64
2022/10/07 06:18:54;;;;;;;8.40;3.58;;;;;;;;;;4976801;28;20081;-64
2022/10/07 06:21:26;;;;;;;9.30;4.20;;;;;;;;;;4976663;28;20500;-64
2022/10/07 06:23:54;;;;;;;8.60;4.15;;;;;;;;;;4976537;28;20043;-65
2022/10/07 06:26:21;;;;;;;9.35;4.30;;;;;;;;;;4976634;28;20034;-65
2022/10/07 06:28:49;;;;;;;7.40;3.72;;;;;;;;;;4976407;28;20084;-65
2022/10/07 06:31:21;;;;;;;7.63;3.65;;;;;;;;;;4976369;28;20026;-65
2022/10/07 06:33:48;;;;;;;7.93;3.95;;;;;;;;;;4976461;28;20049;-65
2022/10/07 06:36:15;;;;;;;7.93;3.92;;;;;;;;;;4976470;28;20030;-66
2022/10/07 06:38:46;;;;;;;8.93;3.75;;;;;;;;;;4976221;28;20393;-66
2022/10/07 06:41:13;;;;;;;7.65;3.88;;;;;;;;;;4974961;28;20034;-66
2022/10/07 06:43:40;;;;;;;6.63;3.50;;;;;;;;;;4976307;28;20041;-66
2022/10/07 06:46:08;;;;;;;8.57;3.78;;;;;;;;;;4976404;28;20027;-66
2022/10/07 06:48:35;;;;;;;7.38;3.60;;;;;;;;;;4976198;28;20038;-66
2022/10/07 06:51:03;;;;;;;7.97;3.60;;;;;;;;;;4976111;28;20034;-64
2022/10/07 06:53:30;;;;;;;6.82;3.30;;;;;;;;;;4976081;28;20027;-64
2022/10/07 06:56:00;;;;;;;6.95;3.58;;;;;;;;;;4976117;28;20532;-64
2022/10/07 06:58:27;;;;;;;7.43;3.15;;;;;;;;;;4976012;28;20034;-64
2022/10/07 07:00:55;;;;;;;7.10;3.22;;;;;;;;;;4976004;28;20377;-64
2022/10/07 07:03:22;;;;;;;6.82;3.38;;;;;;;;;;4975914;28;20065;-64
2022/10/07 07:05:53;;;;;;;5.85;2.90;;;;;;;;;;4975963;28;20054;-64
2022/10/07 07:08:20;;;;;;;5.95;2.88;;;;;;;;;;4974717;28;20474;-64
2022/10/07 07:10:48;;;;;;;8.70;3.20;;;;;;;;;;4975914;28;20098;-64
2022/10/07 07:13:15;;;;;;;8.20;3.38;;;;;;;;;;4975845;28;20027;-64
2022/10/07 07:15:42;;;;;;;6.68;3.28;;;;;;;;;;4975752;28;20026;-64
2022/10/07 07:18:10;;;;;;;7.97;2.92;;;;;;;;;;4975605;28;20039;-64
2022/10/07 07:20:38;;;;;;;6.15;3.00;;;;;;;;;;4975616;28;20176;-64
2022/10/07 07:23:06;;;;;;;7.05;3.58;;;;;;;;;;4975642;28;20050;-64
2022/10/07 07:25:36;;;;;;;5.15;2.50;;;;;;;;;;4975469;28;20023;-64
2022/10/07 07:28:04;;;;;;;4.47;2.72;;;;;;;;;;4975441;28;20098;-64
2022/10/07 07:30:31;;;;;;;7.35;2.97;;;;;;;;;;4975416;28;20034;-64
2022/10/07 07:32:58;;;;;;;6.50;3.03;;;;;;;;;;4975316;28;20046;-64
2022/10/07 07:35:26;;;;;;;6.63;3.10;;;;;;;;;;4975409;28;20037;-64
2022/10/07 07:37:53;;;;;;;5.55;2.75;;;;;;;;;;4975396;28;20038;-64
2022/10/07 07:40:20;;;;;;;4.80;2.72;;;;;;;;;;4975371;28;20029;-64
2022/10/07 07:42:48;;;;;;;6.93;2.92;;;;;;;;;;4975121;28;20042;-64
2022/10/07 07:45:16;;;;;;;5.82;3.05;;;;;;;;;;4975206;28;20392;-64
2022/10/07 07:47:48;;;;;;;4.60;2.47;;;;;;;;;;4975010;28;20057;-64
2022/10/07 07:50:17;;;;;;;4.90;2.35;;;;;;;;;;4974649;28;20038;-65
2022/10/07 07:52:44;;;;;;;6.13;3.00;;;;;;;;;;4975053;28;20039;-65
2022/10/07 07:55:11;;;;;;;5.57;2.75;;;;;;;;;;4975045;28;20058;-66
2022/10/07 07:57:38;;;;;;;5.68;2.63;;;;;;;;;;4974922;28;20034;-65
2022/10/07 08:00:06;;;;;;;4.55;2.30;;;;;;;;;;4974931;28;20046;-66
2022/10/07 08:02:33;;;;;;;5.30;2.72;;;;;;;;;;4974844;28;20065;-66
2022/10/07 08:05:00;;;;;;;4.15;2.55;;;;;;;;;;4974871;28;20069;-65
2022/10/07 08:07:27;;;;;;;4.47;2.50;;;;;;;;;;4974717;28;20077;-66
2022/10/07 08:09:54;;;;;;;7.25;2.42;;;;;;;;;;4974691;28;20445;-65
2022/10/07 08:12:22;;;;;;;4.00;2.38;;;;;;;;;;4974729;28;20141;-65
2022/10/07 08:14:49;;;;;;;4.97;2.58;;;;;;;;;;4974728;28;20066;-66
2022/10/07 08:17:16;;;;;;;7.43;2.38;;;;;;;;;;4974567;28;20030;-65
2022/10/07 08:19:43;;;;;;;7.00;2.72;;;;;;;;;;4974533;28;20034;-66
2022/10/07 08:22:12;;;;;;;3.22;1.98;;;;;;;;;;4974495;28;20055;-65
2022/10/07 08:24:39;;;;;;;3.97;1.88;;;;;;;;;;4974523;28;20043;-66
2022/10/07 08:27:06;;;;;;;7.60;2.33;;;;;;;;;;4974362;28;20485;-65
2022/10/07 08:29:33;;;;;;;5.35;2.45;;;;;;;;;;4974451;28;20038;-66
2022/10/07 08:32:00;;;;;;;4.80;1.92;;;;;;;;;;4974128;28;20046;-65
2022/10/07 08:34:27;;;;;;;4.32;2.25;;;;;;;;;;4974335;28;20030;-66
2022/10/07 08:36:55;;;;;;;3.85;2.22;;;;;;;;;;4974335;28;20048;-65
2022/10/07 08:39:23;;;;;;;5.10;2.00;;;;;;;;;;4974321;28;20039;-66
2022/10/07 08:41:54;;;;;;;4.25;2.03;;;;;;;;;;4974182;28;20042;-66
2022/10/07 08:44:34;;;;;;;3.50;2.00;;;;;;;;;;4974161;28;20030;-65
2022/10/07 08:47:19;;;;;;;3.72;1.90;;;;;;;;;;4974017;28;20555;-65
2022/10/07 08:49:53;;;;;;;3.33;2.08;;;;;;;;;;4974164;28;20034;-65
2022/10/07 08:52:26;;;;;;;3.80;2.22;;;;;;;;;;4974137;28;20031;-66
2022/10/07 08:54:53;;;;;;;3.80;1.73;;;;;;;;;;4974091;28;20042;-66
2022/10/07 08:57:28;;;;;;;4.80;2.20;;;;;;;;;;4974008;28;20105;-65
2022/10/07 08:59:58;;;;;;;4.10;1.85;;;;;;;;;;4974049;28;20146;-66
2022/10/07 09:02:28;;;;;;;3.10;1.90;;;;;;;;;;4973116;28;20110;-65
2022/10/07 09:05:18;;;;;;;4.18;2.15;;;;;;;;;;4973828;28;20033;-66
2022/10/07 09:07:48;;;;;;;4.97;2.30;;;;;;;;;;4968612;28;20043;-65
2022/10/07 09:10:15;;;;;;;2.75;1.85;;;;;;;;;;4973840;28;20042;-65
2022/10/07 09:12:47;;;;;;;4.57;1.90;;;;;;;;;;4973812;28;20397;-65
2022/10/07 09:15:19;;;;;;;3.47;1.77;;;;;;;;;;4972480;28;20090;-66
2022/10/07 09:17:54;;;;;;;2.85;1.60;;;;;;;;;;4973781;28;20030;-66
2022/10/07 09:20:24;;;;;;;3.65;1.80;;;;;;;;;;4973782;28;20588;-65
2022/10/07 09:22:56;;;;;;;2.97;1.70;;;;;;;;;;4973747;28;20075;-65
2022/10/07 09:25:27;;;;;;;2.20;1.42;;;;;;;;;;4973662;28;20098;-66
2022/10/07 09:27:55;;;;;;;3.55;1.63;;;;;;;;;;4973642;28;20033;-66
2022/10/07 09:30:23;;;;;;;3.15;1.60;;;;;;;;;;4973693;28;20034;-66
2022/10/07 09:32:53;;;;;;;4.97;1.88;;;;;;;;;;4973430;28;20401;-65
2022/10/07 09:35:22;;;;;;;3.05;1.60;;;;;;;;;;4973691;28;20031;-66
2022/10/07 09:37:56;;;;;;;3.03;1.67;;;;;;;;;;4973406;28;20046;-66
2022/10/07 09:40:34;;;;;;;3.00;1.77;;;;;;;;;;4973538;28;20038;-66
2022/10/07 09:43:02;;;;;;;2.75;1.40;;;;;;;;;;4973546;28;20113;-66
2022/10/07 09:45:31;;;;;;;3.08;1.70;;;;;;;;;;4973564;28;20097;-66
2022/10/07 09:48:05;;;;;;;2.85;1.52;;;;;;;;;;4973453;28;20078;-65
2022/10/07 09:50:35;;;;;;;2.05;1.40;;;;;;;;;;4973512;28;20031;-66
2022/10/07 09:53:03;;;;;;;3.65;1.48;;;;;;;;;;4973546;28;20113;-66
2022/10/07 09:55:39;;;;;;;2.55;1.40;;;;;;;;;;4973517;28;20031;-66
2022/10/07 09:58:07;;;;;;;3.08;1.50;;;;;;;;;;4973371;28;20027;-66
2022/10/07 10:00:41;;;;;;;3.70;1.33;;;;;;;;;;4973080;28;20504;-65
2022/10/07 10:03:08;;;;;;;3.40;1.55;;;;;;;;;;4973481;28;20074;-66
2022/10/07 10:05:39;;;;;;;2.35;1.45;;;;;;;;;;4973386;28;20425;-66
2022/10/07 10:08:19;;;;;;;3.67;1.60;;;;;;;;;;4973368;28;20050;-66
2022/10/07 10:11:09;;;;;;;2.80;1.70;;;;;;;;;;4972316;28;20440;-65
2022/10/07 10:13:37;;;;;;;2.97;1.40;;;;;;;;;;4969520;28;20099;-66
2022/10/07 10:16:06;;;;;;;2.13;1.33;;;;;;;;;;4976650;28;20558;-66
2022/10/07 10:18:33;;;;;;;2.42;1.38;;;;;;;;;;4976807;28;20511;-66
2022/10/07 10:21:19;;;;;;;2.05;1.58;;;;;;;;;;4976710;28;20038;-65
2022/10/07 10:23:53;;;;;;;3.05;1.20;;;;;;;;;;4975443;28;20101;-65
2022/10/07 10:26:26;;;;;;;3.28;1.48;;;;;;;;;;4976553;28;20397;-65
2022/10/07 10:29:03;;;;;;;2.53;1.40;;;;;;;;;;4976570;28;20035;-65
2022/10/07 10:31:45;;;;;;;1.55;1.10;;;;;;;;;;4976434;28;20102;-66
2022/10/07 10:34:34;;;;;;;2.90;1.45;;;;;;;;;;4976529;28;20519;-66
2022/10/07 10:37:21;;;;;;;2.35;1.40;;;;;;;;;;4976220;28;20042;-66
2022/10/07 10:39:47;;;;;;;1.88;1.30;;;;;;;;;;4975100;28;20378;-66
2022/10/07 10:42:18;;;;;;;2.17;1.35;;;;;;;;;;4976367;28;20389;-66
2022/10/07 10:45:06;;;;;;;2.78;1.15;;;;;;;;;;4976374;28;20443;-66
2022/10/07 10:47:41;;;;;;;2.67;1.38;;;;;;;;;;4976165;28;20397;-65
2022/10/07 10:50:31;;;;;;;3.00;1.23;;;;;;;;;;4976291;28;20392;-66
2022/10/07 10:53:07;;;;;;;4.43;1.10;;;;;;;;;;4976275;28;20393;-65
2022/10/07 10:55:34;;;;;;;3.15;1.25;;;;;;;;;;4976123;28;20612;-66
2022/10/07 10:58:03;;;;;;;2.13;1.20;;;;;;;;;;4976114;28;20058;-66
2022/10/07 11:00:50;;;;;;;1.90;1.00;;;;;;;;;;4976097;28;20105;-66
2022/10/07 11:03:25;;;;;;;2.03;1.13;;;;;;;;;;4976073;28;20035;-65
2022/10/07 11:05:55;;;;;;;1.85;0.95;;;;;;;;;;4975971;28;20023;-66
2022/10/07 11:08:28;;;;;;;1.80;1.00;;;;;;;;;;4975961;28;20034;-66
2022/10/07 11:10:57;;;;;;;1.67;1.10;;;;;;;;;;4975888;28;20159;-66
2022/10/07 11:13:30;;;;;;;2.15;1.08;;;;;;;;;;4975836;28;20101;-65
2022/10/07 11:16:17;;;;;;;2.03;0.90;;;;;;;;;;4975584;28;20034;-65
2022/10/07 11:18:50;;;;;;;2.47;1.08;;;;;;;;;;4968835;28;20109;-65
2022/10/07 11:21:30;;;;;;;3.08;1.33;;;;;;;;;;4975576;28;20043;-65
2022/10/07 11:24:23;;;;;;;2.58;1.10;;;;;;;;;;4975633;28;20030;-65
2022/10/07 11:26:50;;;;;;;1.70;0.98;;;;;;;;;;4973323;28;20046;-65
2022/10/07 11:29:31;;;;;;;1.40;0.90;;;;;;;;;;4975526;28;20034;-65
2022/10/07 11:32:04;;;;;;;1.90;0.90;;;;;;;;;;4975421;28;20575;-66
2022/10/07 11:34:34;;;;;;;2.15;1.10;;;;;;;;;;4975313;28;20037;-66
2022/10/07 11:37:02;;;;;;;1.27;0.82;;;;;;;;;;4975214;28;20448;-66
2022/10/07 11:39:29;;;;;;;3.35;1.27;;;;;;;;;;4975264;28;20035;-64
2022/10/07 11:42:02;;;;;;;1.52;0.80;;;;;;;;;;4975248;28;20513;-64
2022/10/07 11:44:32;;;;;;;1.50;0.90;;;;;;;;;;4975234;28;20022;-64
2022/10/07 11:47:01;;;;;;;2.20;1.00;;;;;;;;;;4975136;28;20054;-64
2022/10/07 11:49:41;;;;;;;1.23;0.90;;;;;;;;;;4975144;28;20058;-64
2022/10/07 11:52:20;;;;;;;1.35;0.98;;;;;;;;;;4975117;28;20058;-64
2022/10/07 11:54:57;;;;;;;2.22;1.02;;;;;;;;;;4975014;28;20109;-64
2022/10/07 11:57:26;;;;;;;2.28;0.80;;;;;;;;;;4974434;28;20035;-64
2022/10/07 12:00:16;;;;;;;1.92;1.17;;;;;;;;;;4966623;28;20512;-65
2022/10/07 12:02:44;;;;;;;2.05;0.85;;;;;;;;;;4934419;29;20529;-63
2022/10/07 12:05:29;;;;;;;1.20;0.77;;;;;;;;;;4936320;29;20490;-63
2022/10/07 12:07:58;;;;;;;2.03;1.15;;;;;;;;;;4948189;29;20438;-63
2022/10/07 12:10:29;;;;;;;0.90;0.75;;;;;;;;;;4953825;28;20035;-65
2022/10/07 12:12:56;;;;;;;1.65;0.95;;;;;;;;;;4955009;28;20106;-64
2022/10/07 12:15:41;;;;;;;1.88;0.90;;;;;;;;;;4954873;28;20038;-63
2022/10/07 12:18:09;;;;;;;1.30;0.82;;;;;;;;;;4954821;28;20474;-66
2022/10/07 12:20:51;;;;;;;1.90;1.00;;;;;;;;;;4955233;28;20442;-69
2022/10/07 12:23:22;;;;;;;4.60;1.00;;;;;;;;;;4955264;28;20039;-69
2022/10/07 12:25:51;;;;;;;4.90;1.00;;;;;;;;;;4954950;28;20114;-69
2022/10/07 12:28:38;;;;;;;1.92;1.02;;;;;;;;;;4955230;28;20041;-69
2022/10/07 12:31:07;;;;;;;4.90;1.40;;;;;;;;;;4954571;29;20102;-69
2022/10/07 12:33:46;;;;;;;2.88;1.20;;;;;;;;;;4954922;28;20066;-69
2022/10/07 12:36:20;;;;;;;3.92;1.15;;;;;;;;;;4954908;28;20034;-69
2022/10/07 12:38:56;;;;;;;4.22;1.10;;;;;;;;;;4953813;28;20031;-69
2022/10/07 12:41:24;;;;;;;1.92;0.90;;;;;;;;;;4954895;28;20035;-69
2022/10/07 12:43:57;;;;;;;2.30;1.17;;;;;;;;;;4955002;28;20082;-69
2022/10/07 12:46:27;;;;;;;3.03;1.10;;;;;;;;;;4954851;28;20037;-69
2022/10/07 12:48:54;;;;;;;2.50;1.13;;;;;;;;;;4954948;28;20046;-69
2022/10/07 12:51:28;;;;;;;9.15;1.33;;;;;;;;;;4954848;28;20027;-68
2022/10/07 12:53:57;;;;;;;2.97;1.10;;;;;;;;;;4954802;28;20034;-69
2022/10/07 12:56:27;;;;;;;2.75;1.20;;;;;;;;;;4954579;28;20058;-69
2022/10/07 13:02:02;;;;;;;4.47;1.13;;;;;;;;;;4954626;29;20045;-69
2022/10/07 13:04:38;;;;;;;4.65;1.00;;;;;;;;;;4954374;28;20058;-69
2022/10/07 13:07:16;;;;;;;10.10;1.65;;;;;;;;;;4953292;28;20405;-62
2022/10/07 13:10:00;;;;;;;82.78;6.93;;;;;;;;;;4954593;28;20046;-63
2022/10/07 13:12:34;;;;;;;79.38;4.90;;;;;;;;;;4954597;28;20027;-64
2022/10/07 13:15:10;;;;;;;16.92;1.65;;;;;;;;;;4954579;28;20032;-64
2022/10/07 13:17:49;;;;;;;27.95;2.08;;;;;;;;;;4954456;28;20038;-64
2022/10/07 13:20:34;;;;;;;13.07;1.83;;;;;;;;;;4954398;28;20429;-61
2022/10/07 13:23:07;;;;;;;83.93;4.40;;;;;;;;;;4954071;28;20043;-60
2022/10/07 13:25:33;;;;;;;;;;;;;;;;;;4954573;28;20390;-60
2022/10/07 13:28:00;;;;;;;57.63;3.83;;;;;;;;;;4954026;28;20066;-61
2022/10/07 13:30:33;;;;;;;27.67;3.05;;;;;;;;;;4954277;28;20482;-64
2022/10/07 13:33:15;;;;;;;67.65;4.80;;;;;;;;;;4953945;28;20066;-61
2022/10/07 13:35:42;;;;;;;;;;;;;;;;;;4954177;28;20050;-60
2022/10/07 13:38:25;;;;;;;49.90;3.63;;;;;;;;;;4954031;28;19910;-57
2022/10/07 13:40:54;;;;;;;32.85;3.00;;;;;;;;;;4954119;28;20449;-57
2022/10/07 13:43:24;;;;;;;24.67;2.10;;;;;;;;;;4954080;28;20046;-58
2022/10/07 13:45:51;;;;;;;25.40;1.95;;;;;;;;;;4953958;28;20118;-57
2022/10/07 13:48:31;;;;;;;14.23;1.60;;;;;;;;;;4954987;28;20521;-59
2022/10/07 13:50:59;;;;;;;14.43;1.67;;;;;;;;;;4957780;28;20031;-57
2022/10/07 13:53:27;;;;;;;13.75;1.45;;;;;;;;;;4955528;29;20044;-56
2022/10/07 13:56:23;;;;;;;3.55;0.85;;;;;;;;;;4957735;28;20031;-54
2022/10/07 13:58:53;;;;;;;10.02;1.20;;;;;;;;;;4946915;29;20490;-56
2022/10/07 14:01:22;;;;;;;8.15;1.23;;;;;;;;;;4957457;28;20047;-57
2022/10/07 14:04:02;;;;;;;82.60;19.63;;;;;;;;;;4957781;28;20042;-56
2022/10/07 14:06:41;;;;;;;48.75;13.20;;;;;;;;;;4957367;28;20123;-57
2022/10/07 14:09:18;;;;;;;13.63;2.17;;;;;;;;;;4957501;28;20386;-56
2022/10/07 14:11:46;;;;;;;8.80;2.22;;;;;;;;;;4957470;28;20053;-59
2022/10/07 14:14:40;;;;;;;7.82;1.70;;;;;;;;;;4956320;29;20031;-58
2022/10/07 14:17:42;;;;;;;6.95;1.40;;;;;;;;;;4943243;29;20031;-57
2022/10/07 14:20:18;;;;;;;4.78;1.30;;;;;;;;;;4955005;29;20102;-60
2022/10/07 14:22:49;;;;;;;5.30;1.15;;;;;;;;;;4956803;28;20051;-61
2022/10/07 14:25:17;;;;;;;3.38;0.88;;;;;;;;;;4957083;28;20027;-59
2022/10/07 14:27:47;;;;;;;7.82;0.98;;;;;;;;;;4957147;28;20035;-58
2022/10/07 14:36:13;;;;;;;3.10;0.70;;;;;;;;;;4957224;29;20054;-60
2022/10/07 14:38:41;;;;;;;4.95;0.82;;;;;;;;;;4956943;28;20035;-58
2022/10/07 14:41:09;;;;;;;2.30;0.65;;;;;;;;;;4956838;28;20027;-60
2022/10/07 14:43:38;;;;;;;5.97;0.70;;;;;;;;;;4957027;28;20504;-58
2022/10/07 14:46:10;;;;;;;5.93;0.80;;;;;;;;;;4943729;29;20035;-61
2022/10/07 14:48:38;;;;;;;3.35;0.93;;;;;;;;;;4956824;28;20082;-59
2022/10/07 14:51:05;;;;;;;20.63;6.72;;;;;;;;;;4956250;28;20385;-58
2022/10/07 14:53:32;;;;;;;13.70;5.13;;;;;;;;;;4956604;28;20050;-58
2022/10/07 14:55:59;;;;;;;21.02;5.78;;;;;;;;;;4956467;28;20136;-60
2022/10/07 14:58:26;;;;;;;19.52;4.35;;;;;;;;;;4956711;28;20027;-60
2022/10/07 15:00:53;;;;;;;10.43;3.47;;;;;;;;;;4950838;28;20027;-60
2022/10/07 15:03:20;;;;;;;5.65;2.30;;;;;;;;;;4953541;29;20051;-59
2022/10/07 15:05:47;;;;;;;15.30;3.33;;;;;;;;;;4936550;29;20446;-61
2022/10/07 15:08:14;;;;;;;10.63;3.08;;;;;;;;;;4936471;29;20070;-60
2022/10/07 15:10:42;;;;;;;6.88;2.88;;;;;;;;;;4937043;29;20038;-58
2022/10/07 15:13:10;;;;;;;9.23;2.75;;;;;;;;;;4937114;29;20027;-58